Time;durP1;ratioP1;P1;durP2;ratioP2;P2;SDS_P1;SDS_P2;PMS_P1;PMS_P2;Temp;Humidity;BMP_temperature;BMP_pressure;BME280_temperature;BME280_humidity;BME280_pressure;Samples;Min_cycle;Max_cycle;Signal;HPM_P1;HPM_P2
2021/12/07 00:00:18;;;;;;;;;2.67;2.33;;;;;-149.00;100.00;66333.84;5100367;27;45706;-78
2021/12/07 00:02:44;;;;;;;;;3.33;3.33;;;;;-149.00;100.00;66333.84;5100634;27;45398;-78
2021/12/07 00:05:10;;;;;;;;;4.33;4.33;;;;;-149.00;100.00;66333.84;5100409;27;46940;-78
2021/12/07 00:07:35;;;;;;;;;4.00;4.00;;;;;-149.00;100.00;66333.84;5100192;27;48074;-79
2021/12/07 00:10:01;;;;;;;;;3.00;2.00;;;;;-149.00;100.00;66333.84;5100183;27;45260;-80
2021/12/07 00:12:34;;;;;;;;;6.50;5.00;;;;;-149.00;100.00;66333.84;5100470;27;45358;-79
2021/12/07 00:15:02;;;;;;;;;9.67;9.33;;;;;-149.00;100.00;66333.84;5101676;27;45784;-79
2021/12/07 00:17:29;;;;;;;;;7.00;6.00;;;;;-149.00;100.00;66333.84;5101341;27;45506;-78
2021/12/07 00:19:55;;;;;;;;;8.67;7.00;;;;;-149.00;100.00;66333.84;5100043;27;45319;-78
2021/12/07 00:22:20;;;;;;;;;4.00;4.00;;;;;-149.00;100.00;66333.84;5100119;27;45248;-78
2021/12/07 00:24:46;;;;;;;;;5.00;5.00;;;;;-149.00;100.00;66333.84;5098724;27;45165;-78
2021/12/07 00:27:11;;;;;;;;;4.67;4.67;;;;;-149.00;100.00;66333.84;5100109;27;48226;-78
2021/12/07 00:29:39;;;;;;;;;5.00;3.67;;;;;-149.00;100.00;66333.84;5100207;27;45340;-78
2021/12/07 00:32:18;;;;;;;;;3.00;1.67;;;;;-149.00;100.00;66333.84;5100132;27;45326;-78
2021/12/07 00:37:36;;;;;;;;;3.33;3.33;;;;;-149.00;100.00;66333.84;5069111;27;46050;-79
2021/12/07 00:40:06;;;;;;;;;6.00;4.00;;;;;-149.00;100.00;66333.84;5099572;27;45474;-79
2021/12/07 00:42:32;;;;;;;;;7.00;5.67;;;;;-149.00;100.00;66333.84;5118274;27;45342;-79
2021/12/07 00:44:57;;;;;;;;;3.67;2.33;;;;;-149.00;100.00;66333.84;5120398;27;46607;-79
2021/12/07 00:47:22;;;;;;;;;5.33;3.00;;;;;-149.00;100.00;66333.84;5120177;27;48153;-79
2021/12/07 00:49:48;;;;;;;;;4.00;3.00;;;;;-149.00;100.00;66333.84;5120505;27;45837;-78
2021/12/07 00:52:13;;;;;;;;;6.67;4.33;;;;;-149.00;100.00;66333.84;5120510;27;45751;-78
2021/12/07 00:54:39;;;;;;;;;4.00;4.00;;;;;-149.00;100.00;66333.84;5120144;27;46550;-78
2021/12/07 00:57:05;;;;;;;;;5.33;4.00;;;;;-149.00;100.00;66333.84;5120182;27;48338;-78
2021/12/07 00:59:32;;;;;;;;;3.00;2.00;;;;;-149.00;100.00;66333.84;5120096;27;46096;-78
2021/12/07 01:01:58;;;;;;;;;2.00;2.00;;;;;-149.00;100.00;66333.84;5120292;27;45325;-78
2021/12/07 01:04:25;;;;;;;;;2.00;2.00;;;;;-149.00;100.00;66333.84;5119918;27;47256;-77
2021/12/07 01:09:30;;;;;;;;;3.33;3.33;;;;;-149.00;100.00;66333.84;5121076;27;45423;-79
2021/12/07 01:25:40;;;;;;;;;2.00;2.00;;;;;-149.00;100.00;66333.84;5120834;27;45266;-80
2021/12/07 01:31:16;;;;;;;;;1.33;1.33;;;;;-149.00;100.00;66333.84;5120853;27;45376;-80
2021/12/07 01:59:50;;;;;;;;;1.67;1.67;;;;;-149.00;100.00;66333.84;5099767;27;45491;-79
2021/12/07 02:02:17;;;;;;;;;2.33;2.00;;;;;-149.00;100.00;66333.84;5098578;27;45826;-79
2021/12/07 02:04:45;;;;;;;;;4.00;4.00;;;;;-149.00;100.00;66333.84;5100226;27;45302;-78
2021/12/07 02:07:11;;;;;;;;;1.33;1.33;;;;;-149.00;100.00;66333.84;5098579;27;46167;-78
2021/12/07 02:09:40;;;;;;;;;2.00;2.00;;;;;-149.00;100.00;66333.84;5098407;27;46809;-78
2021/12/07 02:12:07;;;;;;;;;3.00;3.00;;;;;-149.00;100.00;66333.84;5100036;27;45313;-78
2021/12/07 02:14:33;;;;;;;;;3.67;2.67;;;;;-149.00;100.00;66333.84;5098207;27;45322;-78
2021/12/07 02:17:03;;;;;;;;;1.67;1.67;;;;;-149.00;100.00;66333.84;5098466;27;46219;-78
2021/12/07 02:19:29;;;;;;;;;0.00;0.00;;;;;-149.00;100.00;66333.84;5098489;27;45497;-78
2021/12/07 02:21:57;;;;;;;;;0.33;0.33;;;;;-149.00;100.00;66333.84;5099838;27;45337;-79
2021/12/07 02:24:23;;;;;;;;;3.00;1.00;;;;;-149.00;100.00;66333.84;5098403;27;45313;-79
2021/12/07 02:26:49;;;;;;;;;0.67;0.67;;;;;-149.00;100.00;66333.84;5099923;27;45156;-79
2021/12/07 02:29:16;;;;;;;;;1.00;1.00;;;;;-149.00;100.00;66333.84;5099642;27;45375;-79
2021/12/07 02:31:42;;;;;;;;;3.67;1.00;;;;;-149.00;100.00;66333.84;5098393;27;45555;-79
2021/12/07 02:34:07;;;;;;;;;1.00;1.00;;;;;-149.00;100.00;66333.84;5098428;27;45358;-78
2021/12/07 02:36:34;;;;;;;;;1.00;1.00;;;;;-149.00;100.00;66333.84;5099645;27;45381;-78
2021/12/07 02:39:00;;;;;;;;;2.00;1.00;;;;;-149.00;100.00;66333.84;5098084;27;48081;-78
2021/12/07 02:41:25;;;;;;;;;2.00;1.00;;;;;-149.00;100.00;66333.84;5108606;27;45208;-78
2021/12/07 02:43:51;;;;;;;;;0.00;0.00;;;;;-149.00;100.00;66333.84;5120032;27;45654;-78
2021/12/07 02:46:16;;;;;;;;;1.00;1.00;;;;;-149.00;100.00;66333.84;5120474;27;45304;-78
2021/12/07 02:48:43;;;;;;;;;0.67;0.67;;;;;-149.00;100.00;66333.84;5123026;27;45740;-78
2021/12/07 02:51:09;;;;;;;;;1.00;0.00;;;;;-149.00;100.00;66333.84;5123732;27;45251;-79
2021/12/07 02:53:36;;;;;;;;;2.00;1.33;;;;;-149.00;100.00;66333.84;5122285;27;45381;-79
2021/12/07 02:56:04;;;;;;;;;0.00;0.00;;;;;-149.00;100.00;66333.84;5123500;27;45426;-79
2021/12/07 02:58:29;;;;;;;;;0.33;0.33;;;;;-149.00;100.00;66333.84;5123454;27;45377;-79
2021/12/07 03:01:02;;;;;;;;;3.00;1.00;;;;;-149.00;100.00;66333.84;5121911;27;45341;-79
2021/12/07 03:03:32;;;;;;;;;0.00;0.00;;;;;-149.00;100.00;66333.84;5123652;27;45296;-78
2021/12/07 03:06:13;;;;;;;;;1.00;1.00;;;;;-149.00;100.00;66333.84;5123422;27;45281;-77
2021/12/07 03:27:52;;;;;;;;;1.33;1.33;;;;;-149.00;100.00;66333.84;5122657;27;45372;-78
2021/12/07 03:30:18;;;;;;;;;2.00;2.00;;;;;-149.00;100.00;66333.84;5121383;27;47674;-78
2021/12/07 03:32:44;;;;;;;;;1.00;1.00;;;;;-149.00;100.00;66333.84;5121329;27;46195;-78
2021/12/07 03:35:09;;;;;;;;;2.00;2.00;;;;;-149.00;100.00;66333.84;5121547;27;45444;-79
2021/12/07 03:37:35;;;;;;;;;1.67;1.33;;;;;-149.00;100.00;66333.84;5123109;27;45233;-79
2021/12/07 03:40:00;;;;;;;;;1.00;1.00;;;;;-149.00;100.00;66333.84;5121164;27;47913;-80
2021/12/07 03:42:26;;;;;;;;;3.67;1.00;;;;;-149.00;100.00;66333.84;5103320;27;45269;-79
2021/12/07 03:44:51;;;;;;;;;3.00;3.00;;;;;-149.00;100.00;66333.84;5101070;27;45160;-80
2021/12/07 03:47:16;;;;;;;;;4.00;3.00;;;;;-149.00;100.00;66333.84;5102085;27;45289;-77
2021/12/07 03:49:42;;;;;;;;;6.00;4.00;;;;;-149.00;100.00;66333.84;5100780;27;48430;-77
2021/12/07 03:52:08;;;;;;;;;3.33;3.33;;;;;-149.00;100.00;66333.84;5100637;27;45262;-78
2021/12/07 03:54:33;;;;;;;;;4.00;4.00;;;;;-149.00;100.00;66333.84;5100748;27;45323;-77
2021/12/07 03:56:59;;;;;;;;;4.00;4.00;;;;;-149.00;100.00;66333.84;5102004;27;45439;-77
2021/12/07 03:59:25;;;;;;;;;0.00;0.00;;;;;-149.00;100.00;66333.84;5100288;27;46897;-77
2021/12/07 04:01:51;;;;;;;;;4.00;4.00;;;;;-149.00;100.00;66333.84;5100393;27;45263;-77
2021/12/07 04:04:17;;;;;;;;;4.00;4.00;;;;;-149.00;100.00;66333.84;5101978;27;45287;-79
2021/12/07 04:06:43;;;;;;;;;5.67;4.67;;;;;-149.00;100.00;66333.84;5100288;27;45628;-79
2021/12/07 04:09:08;;;;;;;;;3.33;3.00;;;;;-149.00;100.00;66333.84;5100309;27;45579;-80
2021/12/07 04:11:34;;;;;;;;;3.33;3.00;;;;;-149.00;100.00;66333.84;5100320;27;45632;-80
2021/12/07 04:13:59;;;;;;;;;2.33;2.33;;;;;-149.00;100.00;66333.84;5101971;27;45313;-79
2021/12/07 04:16:24;;;;;;;;;4.33;3.00;;;;;-149.00;100.00;66333.84;5100169;27;46221;-77
2021/12/07 04:18:50;;;;;;;;;2.00;2.00;;;;;-149.00;100.00;66333.84;5101512;27;45298;-77
2021/12/07 04:21:15;;;;;;;;;3.00;3.00;;;;;-149.00;100.00;66333.84;5100104;27;45246;-77
2021/12/07 04:23:41;;;;;;;;;3.00;2.00;;;;;-149.00;100.00;66333.84;5100232;27;45287;-77
2021/12/07 04:26:10;;;;;;;;;4.00;3.00;;;;;-149.00;100.00;66333.84;5101713;27;45230;-78
2021/12/07 04:28:36;;;;;;;;;2.00;1.00;;;;;-149.00;100.00;66333.84;5100065;27;46833;-77
2021/12/07 04:31:02;;;;;;;;;3.00;1.33;;;;;-149.00;100.00;66333.84;5100224;27;45440;-77
2021/12/07 04:33:31;;;;;;;;;4.00;3.00;;;;;-149.00;100.00;66333.84;5099850;27;45325;-77
2021/12/07 04:35:56;;;;;;;;;2.00;2.00;;;;;-149.00;100.00;66333.84;5101268;27;45496;-77
2021/12/07 04:38:22;;;;;;;;;2.00;2.00;;;;;-149.00;100.00;66333.84;5101078;27;45262;-78
2021/12/07 04:40:48;;;;;;;;;2.00;2.00;;;;;-149.00;100.00;66333.84;5103709;27;46067;-77
2021/12/07 04:43:14;;;;;;;;;4.33;2.33;;;;;-149.00;100.00;66333.84;5120669;27;45452;-77
2021/12/07 04:58:34;;;;;;;;;2.67;2.67;;;;;-149.00;100.00;66333.84;5121308;27;45700;-79
2021/12/07 05:01:00;;;;;;;;;3.00;3.00;;;;;-149.00;100.00;66333.84;5119816;27;46119;-79
2021/12/07 05:03:28;;;;;;;;;3.67;3.67;;;;;-149.00;100.00;66333.84;5120156;27;45354;-79
2021/12/07 05:05:54;;;;;;;;;3.00;3.00;;;;;-149.00;100.00;66333.84;5120098;27;45734;-77
2021/12/07 05:08:37;;;;;;;;;1.00;1.00;;;;;-149.00;100.00;66333.84;5119291;27;45286;-77
2021/12/07 05:13:35;;;;;;;;;1.00;1.00;;;;;-149.00;100.00;66333.84;5121672;27;45412;-76
2021/12/07 05:24:00;;;;;;;;;2.00;2.00;;;;;-149.00;100.00;66333.84;5121244;27;45414;-76
2021/12/07 05:40:10;;;;;;;;;2.00;1.00;;;;;-149.00;100.00;66333.84;5120642;27;45375;-76
2021/12/07 05:42:40;;;;;;;;;1.67;1.67;;;;;-149.00;100.00;66333.84;5101359;27;45184;-76
2021/12/07 05:45:08;;;;;;;;;2.33;2.33;;;;;-149.00;100.00;66333.84;5099173;27;45298;-76
2021/12/07 05:47:34;;;;;;;;;3.67;3.00;;;;;-149.00;100.00;66333.84;5100293;27;45351;-79
2021/12/07 05:50:00;;;;;;;;;2.33;2.33;;;;;-149.00;100.00;66333.84;5100329;27;45261;-78
2021/12/07 05:52:25;;;;;;;;;1.33;1.33;;;;;-149.00;100.00;66333.84;5100608;27;45422;-78
2021/12/07 05:54:51;;;;;;;;;4.00;3.00;;;;;-149.00;100.00;66333.84;5133409;27;45361;-79
2021/12/07 05:57:16;;;;;;;;;4.00;2.00;;;;;-149.00;100.00;66333.84;5098941;27;46092;-76
2021/12/07 05:59:42;;;;;;;;;3.00;3.00;;;;;-149.00;100.00;66333.84;5098782;27;48504;-75
2021/12/07 06:02:07;;;;;;;;;2.67;2.33;;;;;-149.00;100.00;66333.84;5098725;27;45778;-76
2021/12/07 06:04:33;;;;;;;;;3.67;3.67;;;;;-149.00;100.00;66333.84;5098759;27;45226;-76
2021/12/07 06:06:59;;;;;;;;;3.00;3.00;;;;;-149.00;100.00;66333.84;5098692;27;46301;-79
2021/12/07 06:09:26;;;;;;;;;7.00;5.00;;;;;-149.00;100.00;66333.84;5098521;27;48312;-78
2021/12/07 06:11:53;;;;;;;;;3.33;3.33;;;;;-149.00;100.00;66333.84;5098693;27;45941;-76
2021/12/07 06:14:20;;;;;;;;;5.33;5.00;;;;;-149.00;100.00;66333.84;5098594;27;45317;-76
2021/12/07 06:16:47;;;;;;;;;4.00;4.00;;;;;-149.00;100.00;66333.84;5098741;27;46375;-75
2021/12/07 06:19:13;;;;;;;;;36.75;35.00;;;;;-149.00;100.00;66333.84;5100607;27;45222;-75
2021/12/07 06:21:39;;;;;;;;;12.25;12.25;;;;;-149.00;100.00;66333.84;5098522;27;45200;-77
2021/12/07 06:24:05;;;;;;;;;9.00;9.00;;;;;-149.00;100.00;66333.84;5103476;27;45370;-78
2021/12/07 06:26:33;;;;;;;;;9.00;9.00;;;;;-149.00;100.00;66333.84;5102034;27;47125;-78
2021/12/07 06:29:00;;;;;;;;;8.00;8.00;;;;;-149.00;100.00;66333.84;5103159;27;46357;-78
2021/12/07 06:31:29;;;;;;;;;9.50;9.00;;;;;-149.00;100.00;66333.84;5101776;27;45235;-77
2021/12/07 06:33:54;;;;;;;;;10.50;8.75;;;;;-149.00;100.00;66333.84;5102857;27;45268;-76
2021/12/07 06:36:20;;;;;;;;;8.75;8.75;;;;;-149.00;100.00;66333.84;5103499;27;45264;-76
2021/12/07 06:38:47;;;;;;;;;11.50;11.50;;;;;-149.00;100.00;66333.84;5101589;27;46205;-75
2021/12/07 06:41:13;;;;;;;;;12.50;12.50;;;;;-149.00;100.00;66333.84;5110574;27;45437;-75
2021/12/07 06:43:38;;;;;;;;;12.25;11.00;;;;;-149.00;100.00;66333.84;5122637;27;45421;-76
2021/12/07 06:46:04;;;;;;;;;10.50;10.25;;;;;-149.00;100.00;66333.84;5122449;27;46795;-75
2021/12/07 06:48:29;;;;;;;;;14.50;14.50;;;;;-149.00;100.00;66333.84;5124058;27;45313;-78
2021/12/07 06:50:55;;;;;;;;;12.25;12.25;;;;;-149.00;100.00;66333.84;5123719;27;45206;-77
2021/12/07 06:53:21;;;;;;;;;14.00;11.75;;;;;-149.00;100.00;66333.84;5122031;27;45246;-78
2021/12/07 06:55:46;;;;;;;;;15.75;12.75;;;;;-149.00;100.00;66333.84;5122089;27;45850;-78
2021/12/07 06:58:12;;;;;;;;;12.50;12.50;;;;;-149.00;100.00;66333.84;5123712;27;45660;-75
2021/12/07 07:00:38;;;;;;;;;17.75;14.25;;;;;-149.00;100.00;66333.84;5123711;27;45389;-75
2021/12/07 07:03:04;;;;;;;;;13.25;10.25;;;;;-149.00;100.00;66333.84;5123392;27;45293;-75
2021/12/07 07:05:30;;;;;;;;;22.25;18.50;;;;;-149.00;100.00;66333.84;5124858;27;45416;-76
2021/12/07 07:07:56;;;;;;;;;18.75;16.75;;;;;-149.00;100.00;66333.84;5125604;27;46095;-75
2021/12/07 07:10:22;;;;;;;;;12.50;12.50;;;;;-149.00;100.00;66333.84;5124382;27;45311;-75
2021/12/07 07:12:48;;;;;;;;;17.25;16.50;;;;;-149.00;100.00;66333.84;5126289;27;45315;-75
2021/12/07 07:15:15;;;;;;;;;17.75;16.25;;;;;-149.00;100.00;66333.84;5123981;27;46586;-74
2021/12/07 07:17:40;;;;;;;;;18.25;15.25;;;;;-149.00;100.00;66333.84;5124271;27;45394;-75
2021/12/07 07:20:08;;;;;;;;;18.25;17.00;;;;;-149.00;100.00;66333.84;5124311;27;45389;-74
2021/12/07 07:22:34;;;;;;;;;18.00;17.25;;;;;-149.00;100.00;66333.84;5125686;27;45332;-75
2021/12/07 07:25:00;;;;;;;;;23.50;19.75;;;;;-149.00;100.00;66333.84;5124103;27;45368;-75
2021/12/07 07:27:25;;;;;;;;;26.00;22.75;;;;;-149.00;100.00;66333.84;5123633;27;45324;-77
2021/12/07 07:29:51;;;;;;;;;15.75;13.00;;;;;-149.00;100.00;66333.84;5122908;27;45386;-76
2021/12/07 07:32:16;;;;;;;;;22.50;18.75;;;;;-149.00;100.00;66333.84;5123013;27;45262;-75
2021/12/07 07:34:42;;;;;;;;;21.00;19.75;;;;;-149.00;100.00;66333.84;5122317;27;45424;-76
2021/12/07 07:37:07;;;;;;;;;26.75;26.75;;;;;-149.00;100.00;66333.84;5108017;27;46676;-77
2021/12/07 07:39:33;;;;;;;;;26.00;20.50;;;;;-149.00;100.00;66333.84;5100591;27;45353;-78
2021/12/07 07:41:59;;;;;;;;;24.25;22.50;;;;;-149.00;100.00;66333.84;5114027;27;45424;-75
2021/12/07 07:44:24;;;;;;;;;19.50;18.25;;;;;-149.00;100.00;66333.84;5117290;27;45302;-75
2021/12/07 07:46:50;;;;;;;;;19.75;18.25;;;;;-149.00;100.00;66333.84;5100390;27;47279;-77
2021/12/07 07:49:15;;;;;;;;;22.25;20.75;;;;;-149.00;100.00;66333.84;5100434;27;45317;-77
2021/12/07 07:51:41;;;;;;;;;25.75;24.00;;;;;-149.00;100.00;66333.84;5102243;27;45269;-77
2021/12/07 07:54:06;;;;;;;;;27.75;19.75;;;;;-149.00;100.00;66333.84;5101792;27;45219;-77
2021/12/07 07:56:32;;;;;;;;;19.50;17.75;;;;;-149.00;100.00;66333.84;5083113;27;47515;-77
2021/12/07 07:58:58;;;;;;;;;19.50;18.25;;;;;-149.00;100.00;66333.84;5100217;27;45435;-77
2021/12/07 08:01:24;;;;;;;;;20.25;18.25;;;;;-149.00;100.00;66333.84;5100729;27;45435;-76
2021/12/07 08:03:50;;;;;;;;;17.50;14.00;;;;;-149.00;100.00;66333.84;5099202;27;47346;-74
2021/12/07 08:06:16;;;;;;;;;15.50;15.50;;;;;-149.00;100.00;66333.84;5101183;27;45820;-75
2021/12/07 08:08:42;;;;;;;;;19.00;16.50;;;;;-149.00;100.00;66333.84;5101286;27;45312;-75
2021/12/07 08:11:07;;;;;;;;;17.75;16.50;;;;;-149.00;100.00;66333.84;5101801;27;45352;-75
2021/12/07 08:13:33;;;;;;;;;18.25;17.00;;;;;-149.00;100.00;66333.84;5101619;27;45411;-75
2021/12/07 08:15:59;;;;;;;;;17.25;16.25;;;;;-149.00;100.00;66333.84;5101682;27;46385;-75
2021/12/07 08:18:25;;;;;;;;;16.50;16.50;;;;;-149.00;100.00;66333.84;5100396;27;45253;-74
2021/12/07 08:20:50;;;;;;;;;21.25;20.00;;;;;-149.00;100.00;66333.84;5101519;27;45268;-76
2021/12/07 08:23:15;;;;;;;;;17.00;16.00;;;;;-149.00;100.00;66333.84;5101476;27;45276;-78
2021/12/07 08:25:45;;;;;;;;;16.00;13.50;;;;;-149.00;100.00;66333.84;5101771;27;45568;-79
2021/12/07 08:28:13;;;;;;;;;13.00;11.75;;;;;-149.00;100.00;66333.84;5100491;27;45406;-77
2021/12/07 08:30:41;;;;;;;;;16.00;15.00;;;;;-149.00;100.00;66333.84;5100290;27;45282;-77
2021/12/07 08:33:08;;;;;;;;;15.50;11.25;;;;;-149.00;100.00;66333.84;5101383;27;45220;-77
2021/12/07 08:35:34;;;;;;;;;9.00;6.00;;;;;-149.00;100.00;66333.84;5101083;27;45777;-76
2021/12/07 08:37:59;;;;;;;;;11.67;11.00;;;;;-149.00;100.00;66333.84;5101620;27;45243;-76
2021/12/07 08:40:30;;;;;;;;;15.00;13.25;;;;;-149.00;100.00;66333.84;5101831;27;45325;-76
2021/12/07 08:42:55;;;;;;;;;18.00;14.25;;;;;-149.00;100.00;66333.84;5121715;27;45319;-76
2021/12/07 08:45:23;;;;;;;;;15.67;12.67;;;;;-149.00;100.00;66333.84;5120903;27;45721;-77
2021/12/07 08:47:49;;;;;;;;;16.00;14.67;;;;;-149.00;100.00;66333.84;5120415;27;45302;-76
2021/12/07 08:50:23;;;;;;;;;15.75;14.00;;;;;-149.00;100.00;66333.84;5120824;27;45375;-76
2021/12/07 08:52:52;;;;;;;;;25.50;19.75;;;;;-149.00;100.00;66333.84;5120253;27;45976;-76
2021/12/07 09:00:48;;;;;;;;;23.00;17.50;;;;;-149.00;100.00;66333.84;5121925;27;45329;-79
2021/12/07 09:03:13;;;;;;;;;13.00;12.00;;;;;-149.00;100.00;66333.84;5121963;27;45408;-78
2021/12/07 09:05:39;;;;;;;;;16.75;16.75;;;;;-149.00;100.00;66333.84;5121114;27;45614;-81
2021/12/07 09:08:05;;;;;;;;;16.67;13.67;;;;;-149.00;100.00;66333.84;5121715;27;45308;-82
2021/12/07 09:10:30;;;;;;;;;16.00;13.33;;;;;-149.00;100.00;66333.84;5121742;27;45566;-83
2021/12/07 09:12:56;;;;;;;;;23.50;20.00;;;;;-149.00;100.00;66333.84;5121457;27;45262;-82
2021/12/07 09:15:21;;;;;;;;;17.50;16.75;;;;;-149.00;100.00;66333.84;5121774;27;45267;-84
2021/12/07 09:17:47;;;;;;;;;17.00;17.00;;;;;-149.00;100.00;66333.84;5120377;27;45318;-84
2021/12/07 09:20:15;;;;;;;;;15.33;13.67;;;;;-149.00;100.00;66333.84;5120057;27;45292;-79
2021/12/07 09:22:43;;;;;;;;;19.67;18.33;;;;;-149.00;100.00;66333.84;5121251;27;45479;-79
2021/12/07 09:25:08;;;;;;;;;19.00;15.67;;;;;-149.00;100.00;66333.84;5119541;27;47616;-79
2021/12/07 09:27:34;;;;;;;;;14.00;12.67;;;;;-149.00;100.00;66333.84;5119888;27;45305;-79
2021/12/07 09:29:59;;;;;;;;;14.33;14.33;;;;;-149.00;100.00;66333.84;5119950;27;45278;-80
2021/12/07 09:32:24;;;;;;;;;12.00;11.33;;;;;-149.00;100.00;66333.84;5121178;27;45709;-80
2021/12/07 09:34:50;;;;;;;;;13.00;11.67;;;;;-149.00;100.00;66333.84;5119785;27;47071;-80
2021/12/07 09:37:16;;;;;;;;;19.00;15.67;;;;;-149.00;100.00;66333.84;5120924;27;45238;-79
2021/12/07 09:39:41;;;;;;;;;28.75;27.75;;;;;-149.00;100.00;66333.84;5109337;27;45547;-81
2021/12/07 09:42:06;;;;;;;;;14.00;14.00;;;;;-149.00;100.00;66333.84;5098297;27;47262;-79
2021/12/07 09:44:32;;;;;;;;;9.67;9.67;;;;;-149.00;100.00;66333.84;5098571;27;47285;-80
2021/12/07 09:46:57;;;;;;;;;15.00;12.00;;;;;-149.00;100.00;66333.84;5098363;27;45243;-80
2021/12/07 09:49:23;;;;;;;;;12.33;11.00;;;;;-149.00;100.00;66333.84;5101348;27;45857;-80
2021/12/07 09:51:48;;;;;;;;;11.33;11.33;;;;;-149.00;100.00;66333.84;5101533;27;45488;-82
2021/12/07 09:54:14;;;;;;;;;12.00;10.33;;;;;-149.00;100.00;66333.84;5098203;27;47367;-81
2021/12/07 09:56:40;;;;;;;;;14.00;11.33;;;;;-149.00;100.00;66333.84;5100829;27;45829;-77
2021/12/07 09:59:08;;;;;;;;;13.33;11.67;;;;;-149.00;100.00;66333.84;5105571;27;45416;-77
2021/12/07 10:01:34;;;;;;;;;12.67;12.00;;;;;-149.00;100.00;66333.84;5103362;27;45939;-78
2021/12/07 10:03:59;;;;;;;;;13.33;12.00;;;;;-149.00;100.00;66333.84;5104447;27;47514;-77
2021/12/07 10:06:25;;;;;;;;;13.00;10.33;;;;;-149.00;100.00;66333.84;5104374;27;45713;-77
2021/12/07 10:08:50;;;;;;;;;14.33;14.00;;;;;-149.00;100.00;66333.84;5104878;27;45227;-77
2021/12/07 10:11:16;;;;;;;;;12.00;12.00;;;;;-149.00;100.00;66333.84;5103659;27;46026;-77
2021/12/07 10:13:45;;;;;;;;;13.33;11.00;;;;;-149.00;100.00;66333.84;5102822;27;47110;-76
2021/12/07 10:16:13;;;;;;;;;11.33;10.00;;;;;-149.00;100.00;66333.84;5103344;27;45310;-75
2021/12/07 10:18:42;;;;;;;;;10.67;10.33;;;;;-149.00;100.00;66333.84;5103458;27;45328;-76
2021/12/07 10:21:41;;;;;;;;;14.33;11.33;;;;;-149.00;100.00;66333.84;5103134;27;45514;-79
2021/12/07 10:24:10;;;;;;;;;13.00;12.00;;;;;-149.00;100.00;66333.84;5068699;27;47532;-80
2021/12/07 10:26:38;;;;;;;;;12.67;12.33;;;;;-149.00;100.00;66333.84;5103283;27;45226;-77
2021/12/07 10:29:16;;;;;;;;;13.00;13.00;;;;;-149.00;100.00;66333.84;5102743;27;45238;-80
2021/12/07 10:31:47;;;;;;;;;8.33;7.33;;;;;-149.00;100.00;66333.84;5122983;27;45399;-79
2021/12/07 10:34:18;;;;;;;;;11.33;11.00;;;;;-149.00;100.00;66333.84;5123566;27;45729;-80
2021/12/07 10:36:46;;;;;;;;;15.67;15.00;;;;;-149.00;100.00;66333.84;5123735;27;45349;-80
2021/12/07 10:39:16;;;;;;;;;15.00;15.00;;;;;-149.00;100.00;66333.84;5122213;27;45378;-77
2021/12/07 10:41:48;;;;;;;;;15.67;12.33;;;;;-149.00;100.00;66333.84;5123337;27;45525;-76
2021/12/07 10:44:17;;;;;;;;;15.33;13.00;;;;;-149.00;100.00;66333.84;5123522;27;45938;-80
2021/12/07 10:46:50;;;;;;;;;14.67;14.00;;;;;-149.00;100.00;66333.84;5122437;27;45346;-76
2021/12/07 10:49:25;;;;;;;;;16.00;14.33;;;;;-149.00;100.00;66333.84;5122234;27;45363;-76
2021/12/07 10:52:07;;;;;;;;;13.00;11.33;;;;;-149.00;100.00;66333.84;5121352;27;46941;-77
2021/12/07 10:54:39;;;;;;;;;14.33;13.67;;;;;-149.00;100.00;66333.84;5121966;27;45533;-77
2021/12/07 10:57:07;;;;;;;;;13.33;10.33;;;;;-149.00;100.00;66333.84;5123551;27;45228;-79
2021/12/07 10:59:37;;;;;;;;;12.00;11.67;;;;;-149.00;100.00;66333.84;5123323;27;45171;-77
2021/12/07 11:02:16;;;;;;;;;12.33;12.33;;;;;-149.00;100.00;66333.84;5121858;27;45461;-75
2021/12/07 11:04:42;;;;;;;;;11.67;11.67;;;;;-149.00;100.00;66333.84;5123166;27;45667;-77
2021/12/07 11:07:19;;;;;;;;;8.33;8.33;;;;;-149.00;100.00;66333.84;5123382;27;45261;-79
2021/12/07 11:10:06;;;;;;;;;19.00;13.33;;;;;-149.00;100.00;66333.84;5121336;27;45392;-76
2021/12/07 11:12:49;;;;;;;;;9.33;9.33;;;;;-149.00;100.00;66333.84;5122994;27;45286;-79
2021/12/07 11:15:23;;;;;;;;;9.67;9.67;;;;;-149.00;100.00;66333.84;5121540;27;47312;-80
2021/12/07 11:17:49;;;;;;;;;10.00;10.00;;;;;-149.00;100.00;66333.84;5121408;27;45381;-79
2021/12/07 11:20:15;;;;;;;;;11.00;10.00;;;;;-149.00;100.00;66333.84;5121694;27;45340;-81
2021/12/07 11:22:46;;;;;;;;;14.00;11.33;;;;;-149.00;100.00;66333.84;5122898;27;45441;-77
2021/12/07 11:25:31;;;;;;;;;10.33;10.33;;;;;-149.00;100.00;66333.84;5120786;27;46390;-76
2021/12/07 11:30:41;;;;;;;;;11.33;11.33;;;;;-149.00;100.00;66333.84;5121618;27;45772;-75
2021/12/07 11:33:07;;;;;;;;;8.67;7.67;;;;;-149.00;100.00;66333.84;5122510;27;45471;-76
2021/12/07 11:35:34;;;;;;;;;10.67;9.33;;;;;-149.00;100.00;66333.84;5121233;27;46291;-80
2021/12/07 11:38:03;;;;;;;;;8.00;7.33;;;;;-149.00;100.00;66333.84;5113779;27;45491;-75
2021/12/07 11:40:36;;;;;;;;;8.67;8.67;;;;;-149.00;100.00;66333.84;5102063;27;45306;-77
2021/12/07 11:43:14;;;;;;;;;9.00;8.00;;;;;-149.00;100.00;66333.84;5101984;27;45425;-76
2021/12/07 11:45:43;;;;;;;;;9.67;7.33;;;;;-149.00;100.00;66333.84;5101629;27;45456;-75
2021/12/07 11:48:09;;;;;;;;;6.00;6.00;;;;;-149.00;100.00;66333.84;5100462;27;45297;-77
2021/12/07 11:50:42;;;;;;;;;7.33;7.33;;;;;-149.00;100.00;66333.84;5100837;27;45515;-78
2021/12/07 11:53:16;;;;;;;;;6.67;6.00;;;;;-149.00;100.00;66333.84;5100283;27;47269;-79
2021/12/07 11:55:47;;;;;;;;;5.33;5.33;;;;;-149.00;100.00;66333.84;5101814;27;46578;-78
2021/12/07 11:58:16;;;;;;;;;6.00;4.67;;;;;-149.00;100.00;66333.84;5100458;27;45342;-79
2021/12/07 12:00:45;;;;;;;;;3.67;3.67;;;;;-149.00;100.00;66333.84;5100238;27;45393;-79
2021/12/07 12:03:16;;;;;;;;;5.00;5.00;;;;;-149.00;100.00;66333.84;5100224;27;46402;-80
2021/12/07 12:05:45;;;;;;;;;6.67;5.67;;;;;-149.00;100.00;66333.84;5100039;27;48879;-76
2021/12/07 12:08:13;;;;;;;;;4.33;4.33;;;;;-149.00;100.00;66333.84;5101522;27;45289;-77
2021/12/07 12:10:47;;;;;;;;;8.00;5.67;;;;;-149.00;100.00;66333.84;5100238;27;45575;-76
2021/12/07 12:13:49;;;;;;;;;4.00;4.00;;;;;-149.00;100.00;66333.84;5101655;27;45316;-80
2021/12/07 12:16:33;;;;;;;;;6.00;5.00;;;;;-149.00;100.00;66333.84;5100071;27;48244;-78
2021/12/07 12:19:11;;;;;;;;;8.00;5.67;;;;;-149.00;100.00;66333.84;5114575;27;46301;-80
2021/12/07 12:22:00;;;;;;;;;6.00;5.33;;;;;-149.00;100.00;66333.84;5120769;27;45503;-79
2021/12/07 12:24:31;;;;;;;;;4.67;4.00;;;;;-149.00;100.00;66333.84;5121923;27;45473;-79
2021/12/07 12:27:10;;;;;;;;;4.00;4.00;;;;;-149.00;100.00;66333.84;5121923;27;45649;-78
2021/12/07 12:29:37;;;;;;;;;4.67;3.67;;;;;-149.00;100.00;66333.84;5121966;27;45221;-79
2021/12/07 12:32:03;;;;;;;;;5.00;4.00;;;;;-149.00;100.00;66333.84;5120672;27;45318;-79
2021/12/07 12:34:31;;;;;;;;;6.00;4.67;;;;;-149.00;100.00;66333.84;5120422;27;45755;-79
2021/12/07 12:37:02;;;;;;;;;6.33;5.00;;;;;-149.00;100.00;66333.84;5120138;27;45575;-80
2021/12/07 12:39:54;;;;;;;;;4.00;4.00;;;;;-149.00;100.00;66333.84;5120071;27;45172;-81
2021/12/07 12:42:52;;;;;;;;;7.00;2.67;;;;;-149.00;100.00;66333.84;5103034;27;45454;-79
2021/12/07 12:45:26;;;;;;;;;2.67;2.67;;;;;-149.00;100.00;66333.84;5099592;27;45256;-78
2021/12/07 12:47:58;;;;;;;;;4.00;4.00;;;;;-149.00;100.00;66333.84;5099407;27;47941;-79
2021/12/07 12:50:27;;;;;;;;;4.67;4.33;;;;;-149.00;100.00;66333.84;5101069;27;45424;-81
2021/12/07 12:52:57;;;;;;;;;5.67;5.67;;;;;-149.00;100.00;66333.84;5134227;27;45313;-80
2021/12/07 12:55:45;;;;;;;;;8.00;8.00;;;;;-149.00;100.00;66333.84;5099601;27;46456;-76
2021/12/07 12:58:36;;;;;;;;;8.00;6.00;;;;;-149.00;100.00;66333.84;5092682;27;46952;-77